<?xml version="1.0" encoding="UTF-8"?>
<gpx version="1.1" creator="Endomondo.com" xsi:schemaLocation="http://www.topografix.com/GPX/1/1 http://www.topografix.com/GPX/1/1/gpx.xsd http://www.garmin.com/xmlschemas/GpxExtensions/v3 http://www.garmin.com/xmlschemas/GpxExtensionsv3.xsd http://www.garmin.com/xmlschemas/TrackPointExtension/v1 http://www.garmin.com/xmlschemas/TrackPointExtensionv1.xsd" xmlns="http://www.topografix.com/GPX/1/1" xmlns:gpxtpx="http://www.garmin.com/xmlschemas/TrackPointExtension/v1" xmlns:gpxx="http://www.garmin.com/xmlschemas/GpxExtensions/v3" xmlns:xsi="http://www.w3.org/2001/XMLSchema-instance">
  <metadata>
    <author>
      <name>Alexander Molinsky (Savrik)</name>
      <email id="savrik" domain="savrik.com"/>
    </author>
    <link href="http://www.endomondo.com">
      <text>Endomondo</text>
    </link>
    <time>2013-04-14T15:57:11Z</time>
    <bounds minlat="31.950735" minlon="34.955637" maxlat="31.950702" maxlon="34.955162"/>
  </metadata>
  <trk>
    <src>http://www.endomondo.com/</src>
    <link href="http://www.endomondo.com/workouts/96077537/3786884">
      <text>endomondo</text>
    </link>
    <type>MOUNTAIN_BIKING</type>
    <trkseg>
      <trkpt lat="31.950735" lon="34.955637">
        <time>2012-09-29T12:36:45Z</time>
      </trkpt>
      <trkpt lat="31.950735" lon="34.955637">
        <ele>186.0</ele>
        <time>2012-09-29T12:36:48Z</time>
      </trkpt>
      <trkpt lat="31.950777" lon="34.955375">
        <ele>195.0</ele>
        <time>2012-09-29T12:37:39Z</time>
      </trkpt>
      <trkpt lat="31.950803" lon="34.955182">
        <ele>194.0</ele>
        <time>2012-09-29T12:37:46Z</time>
      </trkpt>
      <trkpt lat="31.950843" lon="34.954815">
        <ele>194.0</ele>
        <time>2012-09-29T12:37:55Z</time>
      </trkpt>
      <trkpt lat="31.950845" lon="34.95469">
        <ele>194.0</ele>
        <time>2012-09-29T12:37:58Z</time>
      </trkpt>
      <trkpt lat="31.950828" lon="34.954402">
        <ele>194.0</ele>
        <time>2012-09-29T12:38:06Z</time>
      </trkpt>
      <trkpt lat="31.950787" lon="34.954169">
        <ele>194.0</ele>
        <time>2012-09-29T12:38:14Z</time>
      </trkpt>
      <trkpt lat="31.950704" lon="34.953943">
        <ele>194.0</ele>
        <time>2012-09-29T12:38:24Z</time>
      </trkpt>
      <trkpt lat="31.950652" lon="34.953839">
        <ele>194.0</ele>
        <time>2012-09-29T12:38:30Z</time>
      </trkpt>
      <trkpt lat="31.950531" lon="34.953697">
        <ele>193.0</ele>
        <time>2012-09-29T12:38:42Z</time>
      </trkpt>
      <trkpt lat="31.950379" lon="34.9535">
        <ele>192.0</ele>
        <time>2012-09-29T12:39:00Z</time>
      </trkpt>
      <trkpt lat="31.950101" lon="34.953449">
        <ele>191.0</ele>
        <time>2012-09-29T12:39:13Z</time>
      </trkpt>
      <trkpt lat="31.949879" lon="34.953392">
        <ele>190.0</ele>
        <time>2012-09-29T12:39:22Z</time>
      </trkpt>
      <trkpt lat="31.949804" lon="34.953373">
        <ele>190.0</ele>
        <time>2012-09-29T12:39:25Z</time>
      </trkpt>
      <trkpt lat="31.94949" lon="34.953287">
        <ele>189.0</ele>
        <time>2012-09-29T12:39:37Z</time>
      </trkpt>
      <trkpt lat="31.949204" lon="34.953221">
        <ele>189.0</ele>
        <time>2012-09-29T12:39:45Z</time>
      </trkpt>
      <trkpt lat="31.948859" lon="34.953145">
        <ele>187.999</ele>
        <time>2012-09-29T12:39:53Z</time>
      </trkpt>
      <trkpt lat="31.948425" lon="34.953003">
        <ele>182.998</ele>
        <time>2012-09-29T12:39:59Z</time>
      </trkpt>
      <trkpt lat="31.948076" lon="34.952845">
        <ele>182.999</ele>
        <time>2012-09-29T12:40:05Z</time>
      </trkpt>
      <trkpt lat="31.945812" lon="34.951151">
        <ele>182.0</ele>
        <time>2012-09-29T12:41:07Z</time>
      </trkpt>
      <trkpt lat="31.945536" lon="34.951117">
        <ele>181.0</ele>
        <time>2012-09-29T12:41:13Z</time>
      </trkpt>
      <trkpt lat="31.945394" lon="34.951085">
        <ele>181.0</ele>
        <time>2012-09-29T12:41:16Z</time>
      </trkpt>
      <trkpt lat="31.945143" lon="34.951001">
        <ele>182.0</ele>
        <time>2012-09-29T12:41:22Z</time>
      </trkpt>
      <trkpt lat="31.944874" lon="34.95087">
        <ele>182.0</ele>
        <time>2012-09-29T12:41:28Z</time>
      </trkpt>
      <trkpt lat="31.944575" lon="34.950733">
        <ele>182.0</ele>
        <time>2012-09-29T12:41:34Z</time>
      </trkpt>
      <trkpt lat="31.944366" lon="34.950635">
        <ele>180.0</ele>
        <time>2012-09-29T12:41:40Z</time>
      </trkpt>
      <trkpt lat="31.944095" lon="34.950579">
        <ele>177.0</ele>
        <time>2012-09-29T12:41:47Z</time>
      </trkpt>
      <trkpt lat="31.943835" lon="34.950584">
        <ele>177.0</ele>
        <time>2012-09-29T12:41:53Z</time>
      </trkpt>
      <trkpt lat="31.943437" lon="34.950618">
        <ele>175.0</ele>
        <time>2012-09-29T12:42:00Z</time>
      </trkpt>
      <trkpt lat="31.943249" lon="34.950632">
        <ele>175.0</ele>
        <time>2012-09-29T12:42:03Z</time>
      </trkpt>
      <trkpt lat="31.94282" lon="34.950654">
        <ele>174.0</ele>
        <time>2012-09-29T12:42:09Z</time>
      </trkpt>
      <trkpt lat="31.942432" lon="34.950577">
        <ele>173.0</ele>
        <time>2012-09-29T12:42:15Z</time>
      </trkpt>
      <trkpt lat="31.942075" lon="34.950455">
        <ele>172.0</ele>
        <time>2012-09-29T12:42:21Z</time>
      </trkpt>
      <trkpt lat="31.941744" lon="34.950234">
        <ele>172.0</ele>
        <time>2012-09-29T12:42:27Z</time>
      </trkpt>
      <trkpt lat="31.941448" lon="34.94991">
        <ele>172.0</ele>
        <time>2012-09-29T12:42:34Z</time>
      </trkpt>
      <trkpt lat="31.941211" lon="34.949513">
        <ele>171.0</ele>
        <time>2012-09-29T12:42:39Z</time>
      </trkpt>
      <trkpt lat="31.941111" lon="34.949308">
        <ele>171.0</ele>
        <time>2012-09-29T12:42:42Z</time>
      </trkpt>
      <trkpt lat="31.941026" lon="34.949096">
        <ele>171.0</ele>
        <time>2012-09-29T12:42:45Z</time>
      </trkpt>
      <trkpt lat="31.940931" lon="34.948887">
        <ele>171.0</ele>
        <time>2012-09-29T12:42:48Z</time>
      </trkpt>
      <trkpt lat="31.940813" lon="34.948682">
        <ele>171.0</ele>
        <time>2012-09-29T12:42:51Z</time>
      </trkpt>
      <trkpt lat="31.940686" lon="34.948478">
        <ele>171.0</ele>
        <time>2012-09-29T12:42:54Z</time>
      </trkpt>
      <trkpt lat="31.940548" lon="34.94828">
        <ele>171.0</ele>
        <time>2012-09-29T12:42:58Z</time>
      </trkpt>
      <trkpt lat="31.940255" lon="34.947894">
        <ele>170.0</ele>
        <time>2012-09-29T12:43:03Z</time>
      </trkpt>
      <trkpt lat="31.940001" lon="34.947606">
        <ele>170.0</ele>
        <time>2012-09-29T12:43:08Z</time>
      </trkpt>
      <trkpt lat="31.939851" lon="34.947442">
        <ele>170.0</ele>
        <time>2012-09-29T12:43:11Z</time>
      </trkpt>
      <trkpt lat="31.939702" lon="34.947276">
        <ele>170.0</ele>
        <time>2012-09-29T12:43:14Z</time>
      </trkpt>
      <trkpt lat="31.939447" lon="34.947009">
        <ele>170.0</ele>
        <time>2012-09-29T12:43:20Z</time>
      </trkpt>
      <trkpt lat="31.939174" lon="34.94677">
        <ele>171.0</ele>
        <time>2012-09-29T12:43:25Z</time>
      </trkpt>
      <trkpt lat="31.938783" lon="34.946685">
        <ele>170.0</ele>
        <time>2012-09-29T12:43:30Z</time>
      </trkpt>
      <trkpt lat="31.938592" lon="34.946646">
        <ele>169.0</ele>
        <time>2012-09-29T12:43:34Z</time>
      </trkpt>
      <trkpt lat="31.93825" lon="34.946494">
        <ele>168.0</ele>
        <time>2012-09-29T12:43:40Z</time>
      </trkpt>
      <trkpt lat="31.937993" lon="34.946289">
        <ele>167.0</ele>
        <time>2012-09-29T12:43:46Z</time>
      </trkpt>
      <trkpt lat="31.937793" lon="34.946005">
        <ele>167.0</ele>
        <time>2012-09-29T12:43:53Z</time>
      </trkpt>
      <trkpt lat="31.937711" lon="34.945682">
        <ele>169.0</ele>
        <time>2012-09-29T12:44:00Z</time>
      </trkpt>
      <trkpt lat="31.937711" lon="34.945682">
        <time>2012-09-29T12:44:06Z</time>
      </trkpt>
    </trkseg>
    <trkseg>
      <trkpt lat="31.937711" lon="34.945682">
        <time>2012-09-29T12:44:32Z</time>
      </trkpt>
      <trkpt lat="31.937758" lon="34.945916">
        <ele>169.0</ele>
        <time>2012-09-29T12:44:32Z</time>
      </trkpt>
      <trkpt lat="31.937775" lon="34.946036">
        <ele>169.0</ele>
        <time>2012-09-29T12:44:39Z</time>
      </trkpt>
      <trkpt lat="31.937775" lon="34.946036">
        <time>2012-09-29T12:44:46Z</time>
      </trkpt>
    </trkseg>
    <trkseg>
      <trkpt lat="31.937775" lon="34.946036">
        <time>2012-09-29T12:44:51Z</time>
      </trkpt>
      <trkpt lat="31.937813" lon="34.946343">
        <ele>168.0</ele>
        <time>2012-09-29T12:44:51Z</time>
      </trkpt>
      <trkpt lat="31.937818" lon="34.946504">
        <ele>168.0</ele>
        <time>2012-09-29T12:44:54Z</time>
      </trkpt>
      <trkpt lat="31.937791" lon="34.946748">
        <ele>168.0</ele>
        <time>2012-09-29T12:45:00Z</time>
      </trkpt>
      <trkpt lat="31.937705" lon="34.947033">
        <ele>166.999</ele>
        <time>2012-09-29T12:45:12Z</time>
      </trkpt>
      <trkpt lat="31.937636" lon="34.947564">
        <ele>166.0</ele>
        <time>2012-09-29T12:45:27Z</time>
      </trkpt>
      <trkpt lat="31.937504" lon="34.947802">
        <ele>165.999</ele>
        <time>2012-09-29T12:45:41Z</time>
      </trkpt>
      <trkpt lat="31.937473" lon="34.948029">
        <ele>165.999</ele>
        <time>2012-09-29T12:45:50Z</time>
      </trkpt>
      <trkpt lat="31.937462" lon="34.948125">
        <ele>166.0</ele>
        <time>2012-09-29T12:45:59Z</time>
      </trkpt>
      <trkpt lat="31.937329" lon="34.948317">
        <ele>165.999</ele>
        <time>2012-09-29T12:46:20Z</time>
      </trkpt>
      <trkpt lat="31.937196" lon="34.94845">
        <ele>165.999</ele>
        <time>2012-09-29T12:46:29Z</time>
      </trkpt>
      <trkpt lat="31.937066" lon="34.948605">
        <ele>165.999</ele>
        <time>2012-09-29T12:46:39Z</time>
      </trkpt>
      <trkpt lat="31.936977" lon="34.94881">
        <ele>165.999</ele>
        <time>2012-09-29T12:46:49Z</time>
      </trkpt>
      <trkpt lat="31.936816" lon="34.948993">
        <ele>165.999</ele>
        <time>2012-09-29T12:47:00Z</time>
      </trkpt>
      <trkpt lat="31.936567" lon="34.949124">
        <ele>165.999</ele>
        <time>2012-09-29T12:47:08Z</time>
      </trkpt>
      <trkpt lat="31.936334" lon="34.949187">
        <ele>167.0</ele>
        <time>2012-09-29T12:47:17Z</time>
      </trkpt>
      <trkpt lat="31.936114" lon="34.949199">
        <ele>167.0</ele>
        <time>2012-09-29T12:47:26Z</time>
      </trkpt>
      <trkpt lat="31.935887" lon="34.94929">
        <ele>167.0</ele>
        <time>2012-09-29T12:47:37Z</time>
      </trkpt>
      <trkpt lat="31.935696" lon="34.949472">
        <ele>166.999</ele>
        <time>2012-09-29T12:47:45Z</time>
      </trkpt>
      <trkpt lat="31.935635" lon="34.949548">
        <ele>166.999</ele>
        <time>2012-09-29T12:47:48Z</time>
      </trkpt>
      <trkpt lat="31.935577" lon="34.949636">
        <ele>166.999</ele>
        <time>2012-09-29T12:47:51Z</time>
      </trkpt>
      <trkpt lat="31.935457" lon="34.949966">
        <ele>166.999</ele>
        <time>2012-09-29T12:47:59Z</time>
      </trkpt>
      <trkpt lat="31.935379" lon="34.950226">
        <ele>166.999</ele>
        <time>2012-09-29T12:48:06Z</time>
      </trkpt>
      <trkpt lat="31.935281" lon="34.950523">
        <ele>168.0</ele>
        <time>2012-09-29T12:48:15Z</time>
      </trkpt>
      <trkpt lat="31.935189" lon="34.950802">
        <ele>168.0</ele>
        <time>2012-09-29T12:48:24Z</time>
      </trkpt>
      <trkpt lat="31.935091" lon="34.95106">
        <ele>168.0</ele>
        <time>2012-09-29T12:48:33Z</time>
      </trkpt>
      <trkpt lat="31.935012" lon="34.951299">
        <ele>168.0</ele>
        <time>2012-09-29T12:48:41Z</time>
      </trkpt>
      <trkpt lat="31.934934" lon="34.951514">
        <ele>168.0</ele>
        <time>2012-09-29T12:48:49Z</time>
      </trkpt>
      <trkpt lat="31.934878" lon="34.951774">
        <ele>168.0</ele>
        <time>2012-09-29T12:48:59Z</time>
      </trkpt>
      <trkpt lat="31.934854" lon="34.951939">
        <ele>168.0</ele>
        <time>2012-09-29T12:49:06Z</time>
      </trkpt>
      <trkpt lat="31.93481" lon="34.952236">
        <ele>168.0</ele>
        <time>2012-09-29T12:49:19Z</time>
      </trkpt>
      <trkpt lat="31.934813" lon="34.952434">
        <ele>168.0</ele>
        <time>2012-09-29T12:49:27Z</time>
      </trkpt>
      <trkpt lat="31.93479" lon="34.952693">
        <ele>168.0</ele>
        <time>2012-09-29T12:49:38Z</time>
      </trkpt>
      <trkpt lat="31.934752" lon="34.952847">
        <ele>168.0</ele>
        <time>2012-09-29T12:49:45Z</time>
      </trkpt>
      <trkpt lat="31.93456" lon="34.953048">
        <ele>168.0</ele>
        <time>2012-09-29T12:49:58Z</time>
      </trkpt>
      <trkpt lat="31.934448" lon="34.953129">
        <ele>168.0</ele>
        <time>2012-09-29T12:50:03Z</time>
      </trkpt>
      <trkpt lat="31.934288" lon="34.953276">
        <ele>168.0</ele>
        <time>2012-09-29T12:50:11Z</time>
      </trkpt>
      <trkpt lat="31.934142" lon="34.953354">
        <ele>168.0</ele>
        <time>2012-09-29T12:50:16Z</time>
      </trkpt>
      <trkpt lat="31.933877" lon="34.953472">
        <ele>168.0</ele>
        <time>2012-09-29T12:50:24Z</time>
      </trkpt>
      <trkpt lat="31.933601" lon="34.953585">
        <ele>168.0</ele>
        <time>2012-09-29T12:50:32Z</time>
      </trkpt>
      <trkpt lat="31.933337" lon="34.953664">
        <ele>168.0</ele>
        <time>2012-09-29T12:50:39Z</time>
      </trkpt>
      <trkpt lat="31.933149" lon="34.953735">
        <ele>168.0</ele>
        <time>2012-09-29T12:50:45Z</time>
      </trkpt>
      <trkpt lat="31.932918" lon="34.953806">
        <ele>169.0</ele>
        <time>2012-09-29T12:50:53Z</time>
      </trkpt>
      <trkpt lat="31.932687" lon="34.953832">
        <ele>169.0</ele>
        <time>2012-09-29T12:51:01Z</time>
      </trkpt>
      <trkpt lat="31.932476" lon="34.953704">
        <ele>169.0</ele>
        <time>2012-09-29T12:51:08Z</time>
      </trkpt>
      <trkpt lat="31.932305" lon="34.953516">
        <ele>169.0</ele>
        <time>2012-09-29T12:51:14Z</time>
      </trkpt>
      <trkpt lat="31.932121" lon="34.953248">
        <ele>169.0</ele>
        <time>2012-09-29T12:51:21Z</time>
      </trkpt>
      <trkpt lat="31.931945" lon="34.953069">
        <ele>169.0</ele>
        <time>2012-09-29T12:51:28Z</time>
      </trkpt>
      <trkpt lat="31.931753" lon="34.952852">
        <ele>169.0</ele>
        <time>2012-09-29T12:51:36Z</time>
      </trkpt>
      <trkpt lat="31.931678" lon="34.952788">
        <ele>169.0</ele>
        <time>2012-09-29T12:51:39Z</time>
      </trkpt>
      <trkpt lat="31.931595" lon="34.952735">
        <ele>169.0</ele>
        <time>2012-09-29T12:51:42Z</time>
      </trkpt>
      <trkpt lat="31.93151" lon="34.952683">
        <ele>169.0</ele>
        <time>2012-09-29T12:51:45Z</time>
      </trkpt>
      <trkpt lat="31.931298" lon="34.952552">
        <ele>169.0</ele>
        <time>2012-09-29T12:51:53Z</time>
      </trkpt>
      <trkpt lat="31.931069" lon="34.95241">
        <ele>169.0</ele>
        <time>2012-09-29T12:52:02Z</time>
      </trkpt>
      <trkpt lat="31.930923" lon="34.952333">
        <ele>169.0</ele>
        <time>2012-09-29T12:52:08Z</time>
      </trkpt>
      <trkpt lat="31.930703" lon="34.95223">
        <ele>169.0</ele>
        <time>2012-09-29T12:52:18Z</time>
      </trkpt>
      <trkpt lat="31.930496" lon="34.952154">
        <ele>169.0</ele>
        <time>2012-09-29T12:52:28Z</time>
      </trkpt>
      <trkpt lat="31.93028" lon="34.95217">
        <ele>170.0</ele>
        <time>2012-09-29T12:52:38Z</time>
      </trkpt>
      <trkpt lat="31.930058" lon="34.952336">
        <ele>170.0</ele>
        <time>2012-09-29T12:52:50Z</time>
      </trkpt>
      <trkpt lat="31.929944" lon="34.952719">
        <ele>170.0</ele>
        <time>2012-09-29T12:53:01Z</time>
      </trkpt>
      <trkpt lat="31.929871" lon="34.952925">
        <ele>170.0</ele>
        <time>2012-09-29T12:53:08Z</time>
      </trkpt>
      <trkpt lat="31.929762" lon="34.953098">
        <ele>170.0</ele>
        <time>2012-09-29T12:53:17Z</time>
      </trkpt>
      <trkpt lat="31.92968" lon="34.953372">
        <ele>170.0</ele>
        <time>2012-09-29T12:53:28Z</time>
      </trkpt>
      <trkpt lat="31.929527" lon="34.953518">
        <ele>170.0</ele>
        <time>2012-09-29T12:53:37Z</time>
      </trkpt>
      <trkpt lat="31.929329" lon="34.953615">
        <ele>170.0</ele>
        <time>2012-09-29T12:53:48Z</time>
      </trkpt>
      <trkpt lat="31.929268" lon="34.956668">
        <ele>170.0</ele>
        <time>2012-09-29T12:54:19Z</time>
      </trkpt>
      <trkpt lat="31.929268" lon="34.956851">
        <ele>171.0</ele>
        <time>2012-09-29T12:54:25Z</time>
      </trkpt>
      <trkpt lat="31.929294" lon="34.957282">
        <ele>169.999</ele>
        <time>2012-09-29T12:54:43Z</time>
      </trkpt>
      <trkpt lat="31.928831" lon="34.958188">
        <ele>166.0</ele>
        <time>2012-09-29T12:54:54Z</time>
      </trkpt>
      <trkpt lat="31.928688" lon="34.95837">
        <ele>165.0</ele>
        <time>2012-09-29T12:54:59Z</time>
      </trkpt>
      <trkpt lat="31.928542" lon="34.958483">
        <ele>165.0</ele>
        <time>2012-09-29T12:55:06Z</time>
      </trkpt>
      <trkpt lat="31.92835" lon="34.958607">
        <ele>165.0</ele>
        <time>2012-09-29T12:55:18Z</time>
      </trkpt>
      <trkpt lat="31.9282" lon="34.958838">
        <ele>165.0</ele>
        <time>2012-09-29T12:55:33Z</time>
      </trkpt>
      <trkpt lat="31.923154" lon="34.966677">
        <ele>167.0</ele>
        <time>2012-09-29T13:00:58Z</time>
      </trkpt>
      <trkpt lat="31.922984" lon="34.967065">
        <ele>169.0</ele>
        <time>2012-09-29T13:01:04Z</time>
      </trkpt>
      <trkpt lat="31.922936" lon="34.967265">
        <ele>169.0</ele>
        <time>2012-09-29T13:01:07Z</time>
      </trkpt>
      <trkpt lat="31.922869" lon="34.967443">
        <ele>169.0</ele>
        <time>2012-09-29T13:01:10Z</time>
      </trkpt>
      <trkpt lat="31.922866" lon="34.967655">
        <ele>169.0</ele>
        <time>2012-09-29T13:01:13Z</time>
      </trkpt>
      <trkpt lat="31.92278" lon="34.968027">
        <ele>169.0</ele>
        <time>2012-09-29T13:01:19Z</time>
      </trkpt>
      <trkpt lat="31.922612" lon="34.968451">
        <ele>169.0</ele>
        <time>2012-09-29T13:01:27Z</time>
      </trkpt>
      <trkpt lat="31.922612" lon="34.968451">
        <time>2012-09-29T13:01:34Z</time>
      </trkpt>
    </trkseg>
    <trkseg>
      <trkpt lat="31.922612" lon="34.968451">
        <time>2012-09-29T13:01:50Z</time>
      </trkpt>
      <trkpt lat="31.922767" lon="34.968127">
        <ele>170.0</ele>
        <time>2012-09-29T13:01:50Z</time>
      </trkpt>
      <trkpt lat="31.922767" lon="34.968127">
        <time>2012-09-29T13:01:58Z</time>
      </trkpt>
    </trkseg>
    <trkseg>
      <trkpt lat="31.922767" lon="34.968127">
        <time>2012-09-29T13:04:36Z</time>
      </trkpt>
      <trkpt lat="31.925082" lon="34.96324">
        <ele>169.0</ele>
        <time>2012-09-29T13:04:36Z</time>
      </trkpt>
      <trkpt lat="31.928762" lon="34.960782">
        <ele>170.0</ele>
        <time>2012-09-29T13:08:51Z</time>
      </trkpt>
      <trkpt lat="31.928833" lon="34.960433">
        <ele>168.0</ele>
        <time>2012-09-29T13:09:01Z</time>
      </trkpt>
      <trkpt lat="31.928797" lon="34.960206">
        <ele>168.0</ele>
        <time>2012-09-29T13:09:09Z</time>
      </trkpt>
      <trkpt lat="31.92876" lon="34.959929">
        <ele>167.0</ele>
        <time>2012-09-29T13:09:20Z</time>
      </trkpt>
      <trkpt lat="31.928738" lon="34.959757">
        <ele>167.0</ele>
        <time>2012-09-29T13:09:27Z</time>
      </trkpt>
      <trkpt lat="31.928606" lon="34.959">
        <ele>167.997</ele>
        <time>2012-09-29T13:09:54Z</time>
      </trkpt>
      <trkpt lat="31.929257" lon="34.957691">
        <ele>169.999</ele>
        <time>2012-09-29T13:10:03Z</time>
      </trkpt>
      <trkpt lat="31.9295" lon="34.957335">
        <ele>169.0</ele>
        <time>2012-09-29T13:10:09Z</time>
      </trkpt>
      <trkpt lat="31.929672" lon="34.957077">
        <ele>169.0</ele>
        <time>2012-09-29T13:10:14Z</time>
      </trkpt>
      <trkpt lat="31.92983" lon="34.956371">
        <ele>168.999</ele>
        <time>2012-09-29T13:10:58Z</time>
      </trkpt>
      <trkpt lat="31.929877" lon="34.956009">
        <ele>168.997</ele>
        <time>2012-09-29T13:11:22Z</time>
      </trkpt>
      <trkpt lat="31.930633" lon="34.955581">
        <ele>169.0</ele>
        <time>2012-09-29T13:12:01Z</time>
      </trkpt>
      <trkpt lat="31.930743" lon="34.955651">
        <ele>169.0</ele>
        <time>2012-09-29T13:12:12Z</time>
      </trkpt>
      <trkpt lat="31.930911" lon="34.955833">
        <ele>169.0</ele>
        <time>2012-09-29T13:12:28Z</time>
      </trkpt>
      <trkpt lat="31.931027" lon="34.955921">
        <ele>169.0</ele>
        <time>2012-09-29T13:12:37Z</time>
      </trkpt>
      <trkpt lat="31.931248" lon="34.955947">
        <ele>169.0</ele>
        <time>2012-09-29T13:12:48Z</time>
      </trkpt>
      <trkpt lat="31.931543" lon="34.956022">
        <ele>169.0</ele>
        <time>2012-09-29T13:12:53Z</time>
      </trkpt>
      <trkpt lat="31.9317" lon="34.956058">
        <ele>169.0</ele>
        <time>2012-09-29T13:12:56Z</time>
      </trkpt>
      <trkpt lat="31.931983" lon="34.956126">
        <ele>168.999</ele>
        <time>2012-09-29T13:13:01Z</time>
      </trkpt>
      <trkpt lat="31.932149" lon="34.956169">
        <ele>168.999</ele>
        <time>2012-09-29T13:13:04Z</time>
      </trkpt>
      <trkpt lat="31.932447" lon="34.956285">
        <ele>168.999</ele>
        <time>2012-09-29T13:13:10Z</time>
      </trkpt>
      <trkpt lat="31.932606" lon="34.956368">
        <ele>168.999</ele>
        <time>2012-09-29T13:13:13Z</time>
      </trkpt>
      <trkpt lat="31.932759" lon="34.956469">
        <ele>169.999</ele>
        <time>2012-09-29T13:13:16Z</time>
      </trkpt>
      <trkpt lat="31.932907" lon="34.956591">
        <ele>169.999</ele>
        <time>2012-09-29T13:13:19Z</time>
      </trkpt>
      <trkpt lat="31.933039" lon="34.956713">
        <ele>169.999</ele>
        <time>2012-09-29T13:13:22Z</time>
      </trkpt>
      <trkpt lat="31.93313" lon="34.95684">
        <ele>171.0</ele>
        <time>2012-09-29T13:13:25Z</time>
      </trkpt>
      <trkpt lat="31.933227" lon="34.957085">
        <ele>171.0</ele>
        <time>2012-09-29T13:13:31Z</time>
      </trkpt>
      <trkpt lat="31.93326" lon="34.95719">
        <ele>171.0</ele>
        <time>2012-09-29T13:13:34Z</time>
      </trkpt>
      <trkpt lat="31.933323" lon="34.957445">
        <ele>171.0</ele>
        <time>2012-09-29T13:13:42Z</time>
      </trkpt>
      <trkpt lat="31.933315" lon="34.957587">
        <ele>171.0</ele>
        <time>2012-09-29T13:13:47Z</time>
      </trkpt>
      <trkpt lat="31.933253" lon="34.95773">
        <ele>171.001</ele>
        <time>2012-09-29T13:13:55Z</time>
      </trkpt>
      <trkpt lat="31.933175" lon="34.95791">
        <ele>171.0</ele>
        <time>2012-09-29T13:14:03Z</time>
      </trkpt>
      <trkpt lat="31.933121" lon="34.958057">
        <ele>171.0</ele>
        <time>2012-09-29T13:14:15Z</time>
      </trkpt>
      <trkpt lat="31.933276" lon="34.958072">
        <ele>170.998</ele>
        <time>2012-09-29T13:14:38Z</time>
      </trkpt>
      <trkpt lat="31.934044" lon="34.957509">
        <ele>169.996</ele>
        <time>2012-09-29T13:14:55Z</time>
      </trkpt>
      <trkpt lat="31.934597" lon="34.95715">
        <ele>165.997</ele>
        <time>2012-09-29T13:15:00Z</time>
      </trkpt>
      <trkpt lat="31.934874" lon="34.956978">
        <ele>164.998</ele>
        <time>2012-09-29T13:15:03Z</time>
      </trkpt>
      <trkpt lat="31.935071" lon="34.956876">
        <ele>163.999</ele>
        <time>2012-09-29T13:15:06Z</time>
      </trkpt>
      <trkpt lat="31.935384" lon="34.956738">
        <ele>163.999</ele>
        <time>2012-09-29T13:15:12Z</time>
      </trkpt>
      <trkpt lat="31.935646" lon="34.956502">
        <ele>163.0</ele>
        <time>2012-09-29T13:15:18Z</time>
      </trkpt>
      <trkpt lat="31.935689" lon="34.956419">
        <ele>163.0</ele>
        <time>2012-09-29T13:15:21Z</time>
      </trkpt>
      <trkpt lat="31.935846" lon="34.956227">
        <ele>161.0</ele>
        <time>2012-09-29T13:15:33Z</time>
      </trkpt>
      <trkpt lat="31.935846" lon="34.956227">
        <time>2012-09-29T13:15:38Z</time>
      </trkpt>
    </trkseg>
    <trkseg>
      <trkpt lat="31.935846" lon="34.956227">
        <time>2012-09-29T13:15:44Z</time>
      </trkpt>
      <trkpt lat="31.935962" lon="34.95629">
        <ele>161.0</ele>
        <time>2012-09-29T13:15:44Z</time>
      </trkpt>
      <trkpt lat="31.935956" lon="34.956486">
        <ele>160.0</ele>
        <time>2012-09-29T13:15:54Z</time>
      </trkpt>
      <trkpt lat="31.93587" lon="34.956749">
        <ele>160.0</ele>
        <time>2012-09-29T13:16:06Z</time>
      </trkpt>
      <trkpt lat="31.935709" lon="34.957235">
        <ele>160.0</ele>
        <time>2012-09-29T13:16:20Z</time>
      </trkpt>
      <trkpt lat="31.935637" lon="34.957411">
        <ele>160.0</ele>
        <time>2012-09-29T13:16:23Z</time>
      </trkpt>
      <trkpt lat="31.935567" lon="34.957578">
        <ele>160.0</ele>
        <time>2012-09-29T13:16:26Z</time>
      </trkpt>
      <trkpt lat="31.935497" lon="34.957739">
        <ele>160.0</ele>
        <time>2012-09-29T13:16:29Z</time>
      </trkpt>
      <trkpt lat="31.935426" lon="34.957894">
        <ele>160.0</ele>
        <time>2012-09-29T13:16:32Z</time>
      </trkpt>
      <trkpt lat="31.935352" lon="34.958045">
        <ele>160.0</ele>
        <time>2012-09-29T13:16:35Z</time>
      </trkpt>
      <trkpt lat="31.935284" lon="34.958189">
        <ele>159.0</ele>
        <time>2012-09-29T13:16:38Z</time>
      </trkpt>
      <trkpt lat="31.935213" lon="34.958338">
        <ele>159.0</ele>
        <time>2012-09-29T13:16:41Z</time>
      </trkpt>
      <trkpt lat="31.935147" lon="34.958479">
        <ele>159.0</ele>
        <time>2012-09-29T13:16:44Z</time>
      </trkpt>
      <trkpt lat="31.935078" lon="34.958619">
        <ele>159.0</ele>
        <time>2012-09-29T13:16:47Z</time>
      </trkpt>
      <trkpt lat="31.93501" lon="34.958751">
        <ele>159.0</ele>
        <time>2012-09-29T13:16:50Z</time>
      </trkpt>
      <trkpt lat="31.934871" lon="34.959053">
        <ele>159.0</ele>
        <time>2012-09-29T13:16:57Z</time>
      </trkpt>
      <trkpt lat="31.93477" lon="34.959305">
        <ele>159.0</ele>
        <time>2012-09-29T13:17:03Z</time>
      </trkpt>
      <trkpt lat="31.934722" lon="34.959431">
        <ele>159.0</ele>
        <time>2012-09-29T13:17:06Z</time>
      </trkpt>
      <trkpt lat="31.934638" lon="34.959634">
        <ele>159.0</ele>
        <time>2012-09-29T13:17:13Z</time>
      </trkpt>
      <trkpt lat="31.934638" lon="34.959634">
        <time>2012-09-29T13:17:20Z</time>
      </trkpt>
    </trkseg>
    <trkseg>
      <trkpt lat="31.934638" lon="34.959634">
        <time>2012-09-29T13:17:36Z</time>
      </trkpt>
      <trkpt lat="31.934522" lon="34.959642">
        <ele>159.0</ele>
        <time>2012-09-29T13:17:36Z</time>
      </trkpt>
      <trkpt lat="31.934366" lon="34.959526">
        <ele>159.0</ele>
        <time>2012-09-29T13:17:42Z</time>
      </trkpt>
      <trkpt lat="31.934111" lon="34.959611">
        <ele>160.0</ele>
        <time>2012-09-29T13:17:50Z</time>
      </trkpt>
      <trkpt lat="31.93397" lon="34.959774">
        <ele>160.0</ele>
        <time>2012-09-29T13:17:55Z</time>
      </trkpt>
      <trkpt lat="31.9339" lon="34.959898">
        <ele>160.0</ele>
        <time>2012-09-29T13:17:58Z</time>
      </trkpt>
      <trkpt lat="31.933797" lon="34.960194">
        <ele>160.0</ele>
        <time>2012-09-29T13:18:04Z</time>
      </trkpt>
      <trkpt lat="31.93373" lon="34.960528">
        <ele>160.0</ele>
        <time>2012-09-29T13:18:10Z</time>
      </trkpt>
      <trkpt lat="31.93366" lon="34.960877">
        <ele>161.0</ele>
        <time>2012-09-29T13:18:16Z</time>
      </trkpt>
      <trkpt lat="31.933622" lon="34.961052">
        <ele>160.0</ele>
        <time>2012-09-29T13:18:20Z</time>
      </trkpt>
      <trkpt lat="31.933519" lon="34.961403">
        <ele>160.0</ele>
        <time>2012-09-29T13:18:25Z</time>
      </trkpt>
      <trkpt lat="31.933379" lon="34.961729">
        <ele>160.0</ele>
        <time>2012-09-29T13:18:31Z</time>
      </trkpt>
      <trkpt lat="31.933203" lon="34.962006">
        <ele>159.0</ele>
        <time>2012-09-29T13:18:37Z</time>
      </trkpt>
      <trkpt lat="31.93304" lon="34.962191">
        <ele>159.0</ele>
        <time>2012-09-29T13:18:43Z</time>
      </trkpt>
      <trkpt lat="31.932797" lon="34.962403">
        <ele>159.0</ele>
        <time>2012-09-29T13:18:49Z</time>
      </trkpt>
      <trkpt lat="31.932702" lon="34.962489">
        <ele>159.0</ele>
        <time>2012-09-29T13:18:52Z</time>
      </trkpt>
      <trkpt lat="31.932603" lon="34.962564">
        <ele>159.0</ele>
        <time>2012-09-29T13:18:55Z</time>
      </trkpt>
      <trkpt lat="31.932316" lon="34.96271">
        <ele>160.0</ele>
        <time>2012-09-29T13:19:02Z</time>
      </trkpt>
      <trkpt lat="31.932099" lon="34.962821">
        <ele>160.0</ele>
        <time>2012-09-29T13:19:07Z</time>
      </trkpt>
      <trkpt lat="31.931981" lon="34.962895">
        <ele>160.0</ele>
        <time>2012-09-29T13:19:10Z</time>
      </trkpt>
      <trkpt lat="31.931729" lon="34.963102">
        <ele>160.0</ele>
        <time>2012-09-29T13:19:17Z</time>
      </trkpt>
      <trkpt lat="31.931519" lon="34.963293">
        <ele>160.0</ele>
        <time>2012-09-29T13:19:23Z</time>
      </trkpt>
      <trkpt lat="31.931414" lon="34.963389">
        <ele>160.0</ele>
        <time>2012-09-29T13:19:26Z</time>
      </trkpt>
      <trkpt lat="31.931276" lon="34.963595">
        <ele>160.0</ele>
        <time>2012-09-29T13:19:31Z</time>
      </trkpt>
      <trkpt lat="31.931155" lon="34.963743">
        <ele>160.0</ele>
        <time>2012-09-29T13:19:35Z</time>
      </trkpt>
      <trkpt lat="31.930952" lon="34.964072">
        <ele>160.0</ele>
        <time>2012-09-29T13:19:43Z</time>
      </trkpt>
      <trkpt lat="31.93091" lon="34.964338">
        <ele>159.0</ele>
        <time>2012-09-29T13:19:49Z</time>
      </trkpt>
      <trkpt lat="31.931068" lon="34.964563">
        <ele>159.0</ele>
        <time>2012-09-29T13:19:54Z</time>
      </trkpt>
      <trkpt lat="31.931076" lon="34.964811">
        <ele>159.0</ele>
        <time>2012-09-29T13:20:00Z</time>
      </trkpt>
      <trkpt lat="31.931595" lon="34.967942">
        <ele>159.0</ele>
        <time>2012-09-29T13:21:36Z</time>
      </trkpt>
      <trkpt lat="31.931063" lon="34.968049">
        <ele>159.0</ele>
        <time>2012-09-29T13:21:48Z</time>
      </trkpt>
      <trkpt lat="31.930906" lon="34.967957">
        <ele>159.0</ele>
        <time>2012-09-29T13:21:53Z</time>
      </trkpt>
      <trkpt lat="31.93076" lon="34.968117">
        <ele>158.0</ele>
        <time>2012-09-29T13:22:04Z</time>
      </trkpt>
      <trkpt lat="31.930587" lon="34.968413">
        <ele>157.0</ele>
        <time>2012-09-29T13:22:18Z</time>
      </trkpt>
      <trkpt lat="31.930537" lon="34.968476">
        <ele>157.0</ele>
        <time>2012-09-29T13:22:21Z</time>
      </trkpt>
      <trkpt lat="31.930364" lon="34.968715">
        <ele>157.0</ele>
        <time>2012-09-29T13:22:31Z</time>
      </trkpt>
      <trkpt lat="31.930221" lon="34.968913">
        <ele>158.0</ele>
        <time>2012-09-29T13:22:40Z</time>
      </trkpt>
      <trkpt lat="31.930131" lon="34.969069">
        <ele>158.0</ele>
        <time>2012-09-29T13:22:50Z</time>
      </trkpt>
      <trkpt lat="31.930081" lon="34.969174">
        <ele>158.0</ele>
        <time>2012-09-29T13:22:53Z</time>
      </trkpt>
      <trkpt lat="31.93004" lon="34.969274">
        <ele>158.0</ele>
        <time>2012-09-29T13:22:56Z</time>
      </trkpt>
      <trkpt lat="31.930012" lon="34.969382">
        <ele>158.0</ele>
        <time>2012-09-29T13:22:59Z</time>
      </trkpt>
      <trkpt lat="31.929996" lon="34.969575">
        <ele>158.0</ele>
        <time>2012-09-29T13:23:03Z</time>
      </trkpt>
      <trkpt lat="31.930024" lon="34.969932">
        <ele>158.0</ele>
        <time>2012-09-29T13:23:09Z</time>
      </trkpt>
      <trkpt lat="31.930227" lon="34.970392">
        <ele>158.0</ele>
        <time>2012-09-29T13:23:15Z</time>
      </trkpt>
      <trkpt lat="31.93033" lon="34.970628">
        <ele>158.0</ele>
        <time>2012-09-29T13:23:20Z</time>
      </trkpt>
      <trkpt lat="31.930382" lon="34.970754">
        <ele>158.0</ele>
        <time>2012-09-29T13:23:23Z</time>
      </trkpt>
      <trkpt lat="31.930536" lon="34.971046">
        <ele>157.0</ele>
        <time>2012-09-29T13:23:31Z</time>
      </trkpt>
      <trkpt lat="31.930657" lon="34.97113">
        <ele>157.0</ele>
        <time>2012-09-29T13:23:37Z</time>
      </trkpt>
      <trkpt lat="31.930828" lon="34.97119">
        <ele>157.0</ele>
        <time>2012-09-29T13:23:45Z</time>
      </trkpt>
      <trkpt lat="31.931007" lon="34.97129">
        <ele>157.0</ele>
        <time>2012-09-29T13:23:54Z</time>
      </trkpt>
      <trkpt lat="31.931198" lon="34.97147">
        <ele>157.0</ele>
        <time>2012-09-29T13:24:05Z</time>
      </trkpt>
      <trkpt lat="31.93132" lon="34.971564">
        <ele>158.0</ele>
        <time>2012-09-29T13:24:11Z</time>
      </trkpt>
      <trkpt lat="31.931386" lon="34.971614">
        <ele>158.0</ele>
        <time>2012-09-29T13:24:14Z</time>
      </trkpt>
      <trkpt lat="31.931556" lon="34.971751">
        <ele>158.0</ele>
        <time>2012-09-29T13:24:22Z</time>
      </trkpt>
      <trkpt lat="31.931766" lon="34.971961">
        <ele>158.0</ele>
        <time>2012-09-29T13:24:32Z</time>
      </trkpt>
      <trkpt lat="31.93195" lon="34.972142">
        <ele>158.0</ele>
        <time>2012-09-29T13:24:41Z</time>
      </trkpt>
      <trkpt lat="31.932134" lon="34.972293">
        <ele>158.0</ele>
        <time>2012-09-29T13:24:50Z</time>
      </trkpt>
      <trkpt lat="31.932348" lon="34.972436">
        <ele>158.0</ele>
        <time>2012-09-29T13:25:00Z</time>
      </trkpt>
      <trkpt lat="31.932413" lon="34.972484">
        <ele>158.0</ele>
        <time>2012-09-29T13:25:03Z</time>
      </trkpt>
      <trkpt lat="31.932481" lon="34.972534">
        <ele>158.0</ele>
        <time>2012-09-29T13:25:06Z</time>
      </trkpt>
      <trkpt lat="31.932699" lon="34.972635">
        <ele>158.0</ele>
        <time>2012-09-29T13:25:14Z</time>
      </trkpt>
      <trkpt lat="31.93293" lon="34.972778">
        <ele>158.0</ele>
        <time>2012-09-29T13:25:23Z</time>
      </trkpt>
      <trkpt lat="31.933008" lon="34.972847">
        <ele>158.0</ele>
        <time>2012-09-29T13:25:26Z</time>
      </trkpt>
      <trkpt lat="31.933085" lon="34.972924">
        <ele>159.0</ele>
        <time>2012-09-29T13:25:29Z</time>
      </trkpt>
      <trkpt lat="31.933288" lon="34.973114">
        <ele>159.0</ele>
        <time>2012-09-29T13:25:37Z</time>
      </trkpt>
      <trkpt lat="31.933458" lon="34.973267">
        <ele>159.0</ele>
        <time>2012-09-29T13:25:44Z</time>
      </trkpt>
      <trkpt lat="31.933535" lon="34.973322">
        <ele>159.0</ele>
        <time>2012-09-29T13:25:47Z</time>
      </trkpt>
      <trkpt lat="31.933609" lon="34.973381">
        <ele>159.0</ele>
        <time>2012-09-29T13:25:50Z</time>
      </trkpt>
      <trkpt lat="31.933811" lon="34.973518">
        <ele>159.0</ele>
        <time>2012-09-29T13:25:58Z</time>
      </trkpt>
      <trkpt lat="31.934044" lon="34.973659">
        <ele>159.0</ele>
        <time>2012-09-29T13:26:07Z</time>
      </trkpt>
      <trkpt lat="31.934126" lon="34.973704">
        <ele>159.0</ele>
        <time>2012-09-29T13:26:10Z</time>
      </trkpt>
      <trkpt lat="31.934339" lon="34.973836">
        <ele>159.0</ele>
        <time>2012-09-29T13:26:18Z</time>
      </trkpt>
      <trkpt lat="31.934548" lon="34.973971">
        <ele>160.0</ele>
        <time>2012-09-29T13:26:26Z</time>
      </trkpt>
      <trkpt lat="31.934778" lon="34.974121">
        <ele>160.0</ele>
        <time>2012-09-29T13:26:35Z</time>
      </trkpt>
      <trkpt lat="31.934855" lon="34.974169">
        <ele>160.0</ele>
        <time>2012-09-29T13:26:38Z</time>
      </trkpt>
      <trkpt lat="31.93507" lon="34.974288">
        <ele>160.0</ele>
        <time>2012-09-29T13:26:46Z</time>
      </trkpt>
      <trkpt lat="31.935322" lon="34.974376">
        <ele>160.0</ele>
        <time>2012-09-29T13:26:55Z</time>
      </trkpt>
      <trkpt lat="31.935584" lon="34.974434">
        <ele>160.0</ele>
        <time>2012-09-29T13:27:04Z</time>
      </trkpt>
      <trkpt lat="31.935812" lon="34.974514">
        <ele>160.0</ele>
        <time>2012-09-29T13:27:12Z</time>
      </trkpt>
      <trkpt lat="31.936068" lon="34.974603">
        <ele>160.0</ele>
        <time>2012-09-29T13:27:21Z</time>
      </trkpt>
      <trkpt lat="31.93615" lon="34.97463">
        <ele>161.0</ele>
        <time>2012-09-29T13:27:24Z</time>
      </trkpt>
      <trkpt lat="31.936282" lon="34.974683">
        <ele>161.0</ele>
        <time>2012-09-29T13:27:29Z</time>
      </trkpt>
      <trkpt lat="31.93641" lon="34.974742">
        <ele>161.0</ele>
        <time>2012-09-29T13:27:34Z</time>
      </trkpt>
      <trkpt lat="31.936641" lon="34.974818">
        <ele>161.0</ele>
        <time>2012-09-29T13:27:43Z</time>
      </trkpt>
      <trkpt lat="31.936887" lon="34.974866">
        <ele>161.0</ele>
        <time>2012-09-29T13:27:53Z</time>
      </trkpt>
      <trkpt lat="31.93709" lon="34.974956">
        <ele>161.0</ele>
        <time>2012-09-29T13:28:02Z</time>
      </trkpt>
      <trkpt lat="31.937341" lon="34.975059">
        <ele>161.0</ele>
        <time>2012-09-29T13:28:13Z</time>
      </trkpt>
      <trkpt lat="31.937569" lon="34.975148">
        <ele>161.0</ele>
        <time>2012-09-29T13:28:23Z</time>
      </trkpt>
      <trkpt lat="31.937637" lon="34.97517">
        <ele>161.0</ele>
        <time>2012-09-29T13:28:26Z</time>
      </trkpt>
      <trkpt lat="31.937857" lon="34.975215">
        <ele>161.0</ele>
        <time>2012-09-29T13:28:36Z</time>
      </trkpt>
      <trkpt lat="31.938064" lon="34.975218">
        <ele>162.0</ele>
        <time>2012-09-29T13:28:46Z</time>
      </trkpt>
      <trkpt lat="31.938257" lon="34.975154">
        <ele>162.0</ele>
        <time>2012-09-29T13:28:56Z</time>
      </trkpt>
      <trkpt lat="31.938459" lon="34.974895">
        <ele>162.0</ele>
        <time>2012-09-29T13:29:07Z</time>
      </trkpt>
      <trkpt lat="31.938515" lon="34.974797">
        <ele>162.0</ele>
        <time>2012-09-29T13:29:10Z</time>
      </trkpt>
      <trkpt lat="31.93865" lon="34.974544">
        <ele>162.0</ele>
        <time>2012-09-29T13:29:16Z</time>
      </trkpt>
      <trkpt lat="31.938808" lon="34.974315">
        <ele>162.0</ele>
        <time>2012-09-29T13:29:23Z</time>
      </trkpt>
      <trkpt lat="31.938975" lon="34.97417">
        <ele>162.0</ele>
        <time>2012-09-29T13:29:30Z</time>
      </trkpt>
      <trkpt lat="31.939118" lon="34.974074">
        <ele>162.0</ele>
        <time>2012-09-29T13:29:36Z</time>
      </trkpt>
      <trkpt lat="31.939342" lon="34.973927">
        <ele>162.0</ele>
        <time>2012-09-29T13:29:45Z</time>
      </trkpt>
      <trkpt lat="31.939564" lon="34.973606">
        <ele>162.0</ele>
        <time>2012-09-29T13:29:55Z</time>
      </trkpt>
      <trkpt lat="31.939715" lon="34.973187">
        <ele>161.0</ele>
        <time>2012-09-29T13:30:01Z</time>
      </trkpt>
      <trkpt lat="31.94" lon="34.972326">
        <ele>160.0</ele>
        <time>2012-09-29T13:30:08Z</time>
      </trkpt>
      <trkpt lat="31.940209" lon="34.971517">
        <ele>153.0</ele>
        <time>2012-09-29T13:30:15Z</time>
      </trkpt>
      <trkpt lat="31.940292" lon="34.971188">
        <ele>153.0</ele>
        <time>2012-09-29T13:30:20Z</time>
      </trkpt>
      <trkpt lat="31.940274" lon="34.970697">
        <ele>155.0</ele>
        <time>2012-09-29T13:30:25Z</time>
      </trkpt>
      <trkpt lat="31.940116" lon="34.969966">
        <ele>155.0</ele>
        <time>2012-09-29T13:30:33Z</time>
      </trkpt>
      <trkpt lat="31.940014" lon="34.969565">
        <ele>155.0</ele>
        <time>2012-09-29T13:30:38Z</time>
      </trkpt>
      <trkpt lat="31.939963" lon="34.969294">
        <ele>155.0</ele>
        <time>2012-09-29T13:30:42Z</time>
      </trkpt>
      <trkpt lat="31.9399" lon="34.968967">
        <ele>155.0</ele>
        <time>2012-09-29T13:30:47Z</time>
      </trkpt>
      <trkpt lat="31.939886" lon="34.968807">
        <ele>155.0</ele>
        <time>2012-09-29T13:30:50Z</time>
      </trkpt>
      <trkpt lat="31.939903" lon="34.96864">
        <ele>155.0</ele>
        <time>2012-09-29T13:30:54Z</time>
      </trkpt>
      <trkpt lat="31.939935" lon="34.968304">
        <ele>155.0</ele>
        <time>2012-09-29T13:31:03Z</time>
      </trkpt>
      <trkpt lat="31.939935" lon="34.968304">
        <time>2012-09-29T13:31:09Z</time>
      </trkpt>
    </trkseg>
    <trkseg>
      <trkpt lat="31.939935" lon="34.968304">
        <time>2012-09-29T13:31:16Z</time>
      </trkpt>
      <trkpt lat="31.940003" lon="34.968162">
        <ele>155.0</ele>
        <time>2012-09-29T13:31:16Z</time>
      </trkpt>
      <trkpt lat="31.940797" lon="34.968478">
        <ele>155.0</ele>
        <time>2012-09-29T13:32:53Z</time>
      </trkpt>
      <trkpt lat="31.940797" lon="34.968478">
        <time>2012-09-29T13:33:28Z</time>
      </trkpt>
    </trkseg>
    <trkseg>
      <trkpt lat="31.940797" lon="34.968478">
        <time>2012-09-29T13:33:48Z</time>
      </trkpt>
      <trkpt lat="31.941603" lon="34.969198">
        <ele>161.0</ele>
        <time>2012-09-29T13:33:48Z</time>
      </trkpt>
      <trkpt lat="31.941726" lon="34.969272">
        <ele>162.0</ele>
        <time>2012-09-29T13:34:02Z</time>
      </trkpt>
      <trkpt lat="31.941726" lon="34.969272">
        <time>2012-09-29T13:34:09Z</time>
      </trkpt>
    </trkseg>
    <trkseg>
      <trkpt lat="31.941726" lon="34.969272">
        <time>2012-09-29T13:34:55Z</time>
      </trkpt>
      <trkpt lat="31.941968" lon="34.969112">
        <ele>164.0</ele>
        <time>2012-09-29T13:34:55Z</time>
      </trkpt>
      <trkpt lat="31.942232" lon="34.969026">
        <ele>163.0</ele>
        <time>2012-09-29T13:35:42Z</time>
      </trkpt>
      <trkpt lat="31.942387" lon="34.968961">
        <ele>163.0</ele>
        <time>2012-09-29T13:35:51Z</time>
      </trkpt>
      <trkpt lat="31.942541" lon="34.968848">
        <ele>163.0</ele>
        <time>2012-09-29T13:36:04Z</time>
      </trkpt>
      <trkpt lat="31.942666" lon="34.968653">
        <ele>163.0</ele>
        <time>2012-09-29T13:36:20Z</time>
      </trkpt>
      <trkpt lat="31.942762" lon="34.968562">
        <ele>163.0</ele>
        <time>2012-09-29T13:36:27Z</time>
      </trkpt>
      <trkpt lat="31.942899" lon="34.968456">
        <ele>163.0</ele>
        <time>2012-09-29T13:36:35Z</time>
      </trkpt>
      <trkpt lat="31.943022" lon="34.968394">
        <ele>163.0</ele>
        <time>2012-09-29T13:36:39Z</time>
      </trkpt>
      <trkpt lat="31.943395" lon="34.968129">
        <ele>164.0</ele>
        <time>2012-09-29T13:36:48Z</time>
      </trkpt>
      <trkpt lat="31.94356" lon="34.967862">
        <ele>163.999</ele>
        <time>2012-09-29T13:36:51Z</time>
      </trkpt>
      <trkpt lat="31.943865" lon="34.967158">
        <ele>166.999</ele>
        <time>2012-09-29T13:36:57Z</time>
      </trkpt>
      <trkpt lat="31.944027" lon="34.966729">
        <ele>166.999</ele>
        <time>2012-09-29T13:37:01Z</time>
      </trkpt>
      <trkpt lat="31.944146" lon="34.966403">
        <ele>166.999</ele>
        <time>2012-09-29T13:37:04Z</time>
      </trkpt>
      <trkpt lat="31.944383" lon="34.965793">
        <ele>165.999</ele>
        <time>2012-09-29T13:37:10Z</time>
      </trkpt>
      <trkpt lat="31.944614" lon="34.965279">
        <ele>166.999</ele>
        <time>2012-09-29T13:37:15Z</time>
      </trkpt>
      <trkpt lat="31.944889" lon="34.964793">
        <ele>169.999</ele>
        <time>2012-09-29T13:37:21Z</time>
      </trkpt>
      <trkpt lat="31.945119" lon="34.964416">
        <ele>168.999</ele>
        <time>2012-09-29T13:37:26Z</time>
      </trkpt>
      <trkpt lat="31.945267" lon="34.964202">
        <ele>166.999</ele>
        <time>2012-09-29T13:37:29Z</time>
      </trkpt>
      <trkpt lat="31.945489" lon="34.963863">
        <ele>165.999</ele>
        <time>2012-09-29T13:37:34Z</time>
      </trkpt>
      <trkpt lat="31.945692" lon="34.963615">
        <ele>165.0</ele>
        <time>2012-09-29T13:37:40Z</time>
      </trkpt>
      <trkpt lat="31.945873" lon="34.96357">
        <ele>164.001</ele>
        <time>2012-09-29T13:37:45Z</time>
      </trkpt>
      <trkpt lat="31.946023" lon="34.963566">
        <ele>164.001</ele>
        <time>2012-09-29T13:37:50Z</time>
      </trkpt>
      <trkpt lat="31.946209" lon="34.963692">
        <ele>164.001</ele>
        <time>2012-09-29T13:37:56Z</time>
      </trkpt>
      <trkpt lat="31.946387" lon="34.963788">
        <ele>164.0</ele>
        <time>2012-09-29T13:38:02Z</time>
      </trkpt>
      <trkpt lat="31.946681" lon="34.963802">
        <ele>164.001</ele>
        <time>2012-09-29T13:38:11Z</time>
      </trkpt>
      <trkpt lat="31.946864" lon="34.963828">
        <ele>164.002</ele>
        <time>2012-09-29T13:38:19Z</time>
      </trkpt>
      <trkpt lat="31.947038" lon="34.96385">
        <ele>164.001</ele>
        <time>2012-09-29T13:38:31Z</time>
      </trkpt>
      <trkpt lat="31.947175" lon="34.963815">
        <ele>165.001</ele>
        <time>2012-09-29T13:38:42Z</time>
      </trkpt>
      <trkpt lat="31.947298" lon="34.96361">
        <ele>165.001</ele>
        <time>2012-09-29T13:38:56Z</time>
      </trkpt>
      <trkpt lat="31.947401" lon="34.963512">
        <ele>165.001</ele>
        <time>2012-09-29T13:39:06Z</time>
      </trkpt>
      <trkpt lat="31.947401" lon="34.963512">
        <time>2012-09-29T13:39:14Z</time>
      </trkpt>
    </trkseg>
    <trkseg>
      <trkpt lat="31.947401" lon="34.963512">
        <time>2012-09-29T13:39:25Z</time>
      </trkpt>
      <trkpt lat="31.947538" lon="34.96336">
        <ele>165.0</ele>
        <time>2012-09-29T13:39:25Z</time>
      </trkpt>
      <trkpt lat="31.947634" lon="34.963203">
        <ele>166.001</ele>
        <time>2012-09-29T13:39:33Z</time>
      </trkpt>
      <trkpt lat="31.947705" lon="34.963076">
        <ele>166.0</ele>
        <time>2012-09-29T13:39:40Z</time>
      </trkpt>
      <trkpt lat="31.947845" lon="34.962818">
        <ele>166.999</ele>
        <time>2012-09-29T13:39:56Z</time>
      </trkpt>
      <trkpt lat="31.94803" lon="34.96243">
        <ele>167.0</ele>
        <time>2012-09-29T13:40:07Z</time>
      </trkpt>
      <trkpt lat="31.948092" lon="34.962329">
        <ele>167.0</ele>
        <time>2012-09-29T13:40:10Z</time>
      </trkpt>
      <trkpt lat="31.94815" lon="34.962237">
        <ele>167.0</ele>
        <time>2012-09-29T13:40:13Z</time>
      </trkpt>
      <trkpt lat="31.94821" lon="34.962145">
        <ele>168.0</ele>
        <time>2012-09-29T13:40:16Z</time>
      </trkpt>
      <trkpt lat="31.948375" lon="34.961927">
        <ele>169.0</ele>
        <time>2012-09-29T13:40:24Z</time>
      </trkpt>
      <trkpt lat="31.94856" lon="34.961717">
        <ele>169.0</ele>
        <time>2012-09-29T13:40:32Z</time>
      </trkpt>
      <trkpt lat="31.948674" lon="34.96157">
        <ele>169.0</ele>
        <time>2012-09-29T13:40:41Z</time>
      </trkpt>
      <trkpt lat="31.948836" lon="34.96126">
        <ele>169.999</ele>
        <time>2012-09-29T13:40:57Z</time>
      </trkpt>
      <trkpt lat="31.948999" lon="34.960962">
        <ele>169.999</ele>
        <time>2012-09-29T13:41:06Z</time>
      </trkpt>
      <trkpt lat="31.949112" lon="34.960695">
        <ele>169.999</ele>
        <time>2012-09-29T13:41:12Z</time>
      </trkpt>
      <trkpt lat="31.949172" lon="34.960551">
        <ele>169.999</ele>
        <time>2012-09-29T13:41:15Z</time>
      </trkpt>
      <trkpt lat="31.949284" lon="34.960276">
        <ele>169.999</ele>
        <time>2012-09-29T13:41:21Z</time>
      </trkpt>
      <trkpt lat="31.949398" lon="34.959981">
        <ele>170.0</ele>
        <time>2012-09-29T13:41:28Z</time>
      </trkpt>
      <trkpt lat="31.949479" lon="34.959755">
        <ele>171.0</ele>
        <time>2012-09-29T13:41:34Z</time>
      </trkpt>
      <trkpt lat="31.94962" lon="34.959485">
        <ele>171.0</ele>
        <time>2012-09-29T13:41:42Z</time>
      </trkpt>
      <trkpt lat="31.94979" lon="34.959265">
        <ele>171.0</ele>
        <time>2012-09-29T13:41:50Z</time>
      </trkpt>
      <trkpt lat="31.949963" lon="34.959083">
        <ele>171.0</ele>
        <time>2012-09-29T13:41:58Z</time>
      </trkpt>
      <trkpt lat="31.95011" lon="34.958858">
        <ele>172.001</ele>
        <time>2012-09-29T13:42:07Z</time>
      </trkpt>
      <trkpt lat="31.950215" lon="34.958632">
        <ele>173.001</ele>
        <time>2012-09-29T13:42:18Z</time>
      </trkpt>
      <trkpt lat="31.950311" lon="34.958537">
        <ele>173.001</ele>
        <time>2012-09-29T13:42:28Z</time>
      </trkpt>
      <trkpt lat="31.950452" lon="34.958241">
        <ele>174.001</ele>
        <time>2012-09-29T13:42:47Z</time>
      </trkpt>
      <trkpt lat="31.950466" lon="34.957937">
        <ele>175.0</ele>
        <time>2012-09-29T13:43:00Z</time>
      </trkpt>
      <trkpt lat="31.950502" lon="34.957746">
        <ele>175.0</ele>
        <time>2012-09-29T13:43:08Z</time>
      </trkpt>
      <trkpt lat="31.950536" lon="34.957608">
        <ele>176.0</ele>
        <time>2012-09-29T13:43:14Z</time>
      </trkpt>
      <trkpt lat="31.950606" lon="34.957361">
        <ele>176.0</ele>
        <time>2012-09-29T13:43:26Z</time>
      </trkpt>
      <trkpt lat="31.950642" lon="34.957158">
        <ele>176.0</ele>
        <time>2012-09-29T13:43:32Z</time>
      </trkpt>
      <trkpt lat="31.950711" lon="34.956814">
        <ele>177.0</ele>
        <time>2012-09-29T13:43:38Z</time>
      </trkpt>
      <trkpt lat="31.950781" lon="34.956426">
        <ele>178.0</ele>
        <time>2012-09-29T13:43:44Z</time>
      </trkpt>
      <trkpt lat="31.950873" lon="34.956079">
        <ele>179.0</ele>
        <time>2012-09-29T13:43:49Z</time>
      </trkpt>
      <trkpt lat="31.951" lon="34.955627">
        <ele>180.0</ele>
        <time>2012-09-29T13:43:55Z</time>
      </trkpt>
      <trkpt lat="31.951056" lon="34.955293">
        <ele>181.0</ele>
        <time>2012-09-29T13:44:01Z</time>
      </trkpt>
      <trkpt lat="31.950869" lon="34.95516">
        <ele>182.0</ele>
        <time>2012-09-29T13:44:06Z</time>
      </trkpt>
      <trkpt lat="31.950702" lon="34.955162">
        <ele>181.0</ele>
        <time>2012-09-29T13:44:11Z</time>
      </trkpt>
      <trkpt lat="31.950702" lon="34.955162">
        <time>2012-09-29T13:44:22Z</time>
      </trkpt>
    </trkseg>
    <trkseg>
      <trkpt lat="31.950702" lon="34.955162">
        <time>2012-09-29T13:45:59Z</time>
      </trkpt>
      <trkpt lat="31.950702" lon="34.955162">
        <time>2012-09-29T13:45:59Z</time>
      </trkpt>
    </trkseg>
  </trk>
</gpx>